This is the latest recevied weather packets stored in our database for station/object HA2SKA-1. If no packets are shown the sender has not sent any weather packets the latest 10 day(s).
| Time | Temp. | Humidity | Pressure | Rain* | Wind** | Luminosity | Snow |
|---|---|---|---|---|---|---|---|
| 1777842963 | 16.67° C | 40% | 1020 hPa | - | - | - | - |
| 1777842063 | 16.67° C | 40% | 1020 hPa | - | - | - | - |
| 1777841163 | 17.22° C | 39% | 1020 hPa | - | - | - | - |
| 1777840262 | 17.78° C | 37% | 1019.9 hPa | - | - | - | - |
| 1777839362 | 17.78° C | 37% | 1020 hPa | - | - | - | - |
| 1777838462 | 16.67° C | 40% | 1020 hPa | - | - | - | - |
| 1777837562 | 19.44° C | 33% | 1019.9 hPa | - | - | - | - |
| 1777836662 | 19.44° C | 33% | 1019.8 hPa | - | - | - | - |
| 1777835761 | 19.44° C | 32% | 1019.7 hPa | - | - | - | - |
| 1777834861 | 20° C | 31% | 1019.6 hPa | - | - | - | - |
| 1777833961 | 20° C | 31% | 1019.4 hPa | - | - | - | - |
| 1777833061 | 20.56° C | 30% | 1019.3 hPa | - | - | - | - |
| 1777832161 | 21.11° C | 30% | 1019.2 hPa | - | - | - | - |
| 1777831261 | 21.11° C | 29% | 1019 hPa | - | - | - | - |
| 1777830361 | 22.22° C | 28% | 1019 hPa | - | - | - | - |
| 1777829461 | 22.78° C | 27% | 1019 hPa | - | - | - | - |
| 1777828561 | 22.78° C | 28% | 1018.9 hPa | - | - | - | - |
| 1777827661 | 23.33° C | 26% | 1018.9 hPa | - | - | - | - |
| 1777826761 | 23.89° C | 26% | 1019 hPa | - | - | - | - |
| 1777825860 | 24.44° C | 25% | 1019 hPa | - | - | - | - |
| 1777824960 | 24.44° C | 25% | 1019 hPa | - | - | - | - |
| 1777824060 | 25° C | 24% | 1019.1 hPa | - | - | - | - |
| 1777823160 | 25° C | 24% | 1019.1 hPa | - | - | - | - |
| 1777822260 | 25.56° C | 25% | 1019.2 hPa | - | - | - | - |
| 1777821360 | 25.56° C | 24% | 1019.3 hPa | - | - | - | - |
* Rain since midnight (hover to see other rain measurements)
** Current wind speed in m/s (hover to see current wind gust speed)